Time;durP1;ratioP1;P1;durP2;ratioP2;P2;SDS_P1;SDS_P2;PMS_P1;PMS_P2;Temp;Humidity;BMP_temperature;BMP_pressure;BME280_temperature;BME280_humidity;BME280_pressure;Samples;Min_cycle;Max_cycle;Signal;HPM_P1;HPM_P2
2023/04/03 00:01:39;;;;;;;0.88;0.30;;;;;;;;;;5025799;28;20033;-75
2023/04/03 00:04:05;;;;;;;2.55;0.25;;;;;;;;;;5023396;28;20685;-75
2023/04/03 00:06:31;;;;;;;0.57;0.57;;;;;;;;;;5024788;28;20390;-76
2023/04/03 00:08:57;;;;;;;0.25;0.25;;;;;;;;;;5022882;28;20477;-76
2023/04/03 00:11:23;;;;;;;0.30;0.25;;;;;;;;;;5019992;28;20037;-75
2023/04/03 00:13:50;;;;;;;0.95;0.50;;;;;;;;;;5015249;28;20374;-76
2023/04/03 00:16:16;;;;;;;0.30;0.30;;;;;;;;;;5018279;28;20400;-76
2023/04/03 00:18:42;;;;;;;0.57;0.57;;;;;;;;;;5024856;28;20044;-76
2023/04/03 00:21:08;;;;;;;0.43;0.40;;;;;;;;;;5019188;28;20517;-75
2023/04/03 00:23:34;;;;;;;0.40;0.40;;;;;;;;;;5024974;28;20049;-78
2023/04/03 00:26:00;;;;;;;1.05;0.63;;;;;;;;;;5016418;28;20040;-76
2023/04/03 00:28:26;;;;;;;0.20;0.20;;;;;;;;;;5016972;28;20029;-76
2023/04/03 00:30:52;;;;;;;1.00;0.57;;;;;;;;;;5023709;28;20397;-75
2023/04/03 00:33:21;;;;;;;1.50;0.40;;;;;;;;;;5020598;28;20087;-76
2023/04/03 00:35:47;;;;;;;0.40;0.40;;;;;;;;;;5019608;28;20041;-76
2023/04/03 00:38:13;;;;;;;0.80;0.40;;;;;;;;;;5019442;28;20569;-75
2023/04/03 00:40:42;;;;;;;0.65;0.50;;;;;;;;;;5025808;28;20026;-75
2023/04/03 00:43:15;;;;;;;0.65;0.55;;;;;;;;;;5019871;28;20041;-75
2023/04/03 00:45:43;;;;;;;0.20;0.20;;;;;;;;;;5020299;28;20030;-76
2023/04/03 00:48:12;;;;;;;1.15;0.68;;;;;;;;;;5014406;28;20120;-76
2023/04/03 00:50:41;;;;;;;0.35;0.30;;;;;;;;;;5021641;28;20501;-76
2023/04/03 00:53:09;;;;;;;2.47;0.40;;;;;;;;;;5023453;28;20034;-76
2023/04/03 00:55:36;;;;;;;0.20;0.20;;;;;;;;;;5025406;28;20484;-75
2023/04/03 00:58:02;;;;;;;1.05;0.50;;;;;;;;;;5018312;28;20507;-77
2023/04/03 01:00:29;;;;;;;0.45;0.40;;;;;;;;;;5022581;28;20507;-76
2023/04/03 01:02:55;;;;;;;0.73;0.38;;;;;;;;;;5014952;28;20503;-76
2023/04/03 01:05:21;;;;;;;0.47;0.40;;;;;;;;;;5012802;28;20029;-77
2023/04/03 01:07:48;;;;;;;0.75;0.43;;;;;;;;;;5022699;28;20065;-76
2023/04/03 01:10:15;;;;;;;0.40;0.20;;;;;;;;;;5026145;28;20134;-76
2023/04/03 01:12:42;;;;;;;0.20;0.20;;;;;;;;;;5021938;28;20021;-76
2023/04/03 01:15:16;;;;;;;1.20;0.40;;;;;;;;;;5020020;28;20070;-76
2023/04/03 01:17:43;;;;;;;0.28;0.22;;;;;;;;;;5026201;28;20038;-76
2023/04/03 01:20:18;;;;;;;0.57;0.30;;;;;;;;;;5014008;28;20503;-76
2023/04/03 01:22:54;;;;;;;0.32;0.30;;;;;;;;;;5023576;28;20028;-76
2023/04/03 01:25:20;;;;;;;0.50;0.32;;;;;;;;;;5021507;28;20040;-76
2023/04/03 01:27:46;;;;;;;1.00;0.30;;;;;;;;;;5018015;28;20586;-76
2023/04/03 01:30:13;;;;;;;0.10;0.10;;;;;;;;;;5024395;28;20040;-76
2023/04/03 01:32:39;;;;;;;0.98;0.40;;;;;;;;;;5023718;28;20044;-76
2023/04/03 01:35:07;;;;;;;0.20;0.20;;;;;;;;;;5016565;28;20022;-76
2023/04/03 01:37:33;;;;;;;1.10;0.30;;;;;;;;;;5019758;28;20427;-77
2023/04/03 01:40:02;;;;;;;0.68;0.38;;;;;;;;;;5015735;28;20038;-76
2023/04/03 01:42:28;;;;;;;0.30;0.13;;;;;;;;;;5012666;28;20034;-76
2023/04/03 01:44:54;;;;;;;0.75;0.43;;;;;;;;;;5002595;28;20117;-76
2023/04/03 01:47:20;;;;;;;1.33;0.60;;;;;;;;;;4998802;28;20025;-77
2023/04/03 01:49:46;;;;;;;1.30;0.55;;;;;;;;;;4995990;28;20031;-76
2023/04/03 01:52:12;;;;;;;0.45;0.30;;;;;;;;;;5001567;28;20036;-76
2023/04/03 01:54:38;;;;;;;0.20;0.20;;;;;;;;;;5004566;28;20034;-76
2023/04/03 01:57:04;;;;;;;0.75;0.45;;;;;;;;;;5005877;28;20084;-77
2023/04/03 01:59:30;;;;;;;1.65;0.32;;;;;;;;;;5006945;28;20014;-76
2023/04/03 02:01:56;;;;;;;0.20;0.20;;;;;;;;;;4994705;28;20026;-76
2023/04/03 02:04:22;;;;;;;0.20;0.20;;;;;;;;;;5005755;28;20022;-76
2023/04/03 02:06:48;;;;;;;0.25;0.25;;;;;;;;;;5007860;28;20401;-76
2023/04/03 02:09:14;;;;;;;0.75;0.40;;;;;;;;;;5005269;28;20030;-76
2023/04/03 02:11:40;;;;;;;0.85;0.30;;;;;;;;;;4993384;28;20021;-76
2023/04/03 02:14:07;;;;;;;0.47;0.25;;;;;;;;;;4999080;28;20120;-76
2023/04/03 02:16:33;;;;;;;0.20;0.20;;;;;;;;;;4996292;28;20026;-77
2023/04/03 02:18:59;;;;;;;0.40;0.40;;;;;;;;;;4993657;28;20173;-76
2023/04/03 02:21:25;;;;;;;0.93;0.50;;;;;;;;;;5002299;28;20033;-76
2023/04/03 02:23:51;;;;;;;0.47;0.20;;;;;;;;;;5011407;28;20026;-77
2023/04/03 02:26:17;;;;;;;0.68;0.65;;;;;;;;;;5007677;28;20037;-77
2023/04/03 02:28:44;;;;;;;2.42;0.40;;;;;;;;;;4997414;28;20072;-76
2023/04/03 02:31:10;;;;;;;3.03;0.22;;;;;;;;;;4998089;28;20375;-76
2023/04/03 02:33:36;;;;;;;0.28;0.28;;;;;;;;;;5007523;28;20030;-76
2023/04/03 02:36:04;;;;;;;1.98;0.57;;;;;;;;;;5003879;28;20034;-76
2023/04/03 02:38:30;;;;;;;0.20;0.20;;;;;;;;;;5002417;28;20087;-76
2023/04/03 02:41:03;;;;;;;0.38;0.35;;;;;;;;;;4999831;28;20628;-76
2023/04/03 02:43:29;;;;;;;0.90;0.60;;;;;;;;;;5022033;28;20427;-76
2023/04/03 02:45:55;;;;;;;0.30;0.22;;;;;;;;;;5027353;28;20472;-76
2023/04/03 02:48:21;;;;;;;0.32;0.30;;;;;;;;;;5026875;28;20022;-76
2023/04/03 02:50:47;;;;;;;0.28;0.22;;;;;;;;;;5019366;28;20029;-76
2023/04/03 02:53:13;;;;;;;0.32;0.32;;;;;;;;;;5013700;28;20044;-76
2023/04/03 02:55:39;;;;;;;0.20;0.20;;;;;;;;;;5024729;28;20111;-76
2023/04/03 02:58:05;;;;;;;0.25;0.20;;;;;;;;;;5026294;28;20480;-77
2023/04/03 03:00:31;;;;;;;0.73;0.43;;;;;;;;;;5016849;28;20097;-76
2023/04/03 03:02:57;;;;;;;0.40;0.35;;;;;;;;;;5023224;28;20059;-76
2023/04/03 03:05:23;;;;;;;1.00;0.68;;;;;;;;;;5017393;28;20534;-76
2023/04/03 03:07:49;;;;;;;0.20;0.20;;;;;;;;;;5022756;28;20032;-76
2023/04/03 03:10:15;;;;;;;2.25;0.50;;;;;;;;;;5020498;28;20049;-76
2023/04/03 03:12:41;;;;;;;0.40;0.40;;;;;;;;;;5018337;28;20045;-76
2023/04/03 03:15:08;;;;;;;1.40;0.20;;;;;;;;;;5011530;28;20184;-76
2023/04/03 03:17:35;;;;;;;0.47;0.32;;;;;;;;;;5024729;28;20140;-76
2023/04/03 03:20:01;;;;;;;0.38;0.25;;;;;;;;;;5019757;28;20065;-76
2023/04/03 03:22:28;;;;;;;0.50;0.32;;;;;;;;;;5021220;28;20153;-72
2023/04/03 03:24:54;;;;;;;0.75;0.28;;;;;;;;;;5013382;28;20064;-76
2023/04/03 03:27:20;;;;;;;0.38;0.35;;;;;;;;;;5015259;28;20029;-78
2023/04/03 03:29:46;;;;;;;1.63;0.55;;;;;;;;;;5028313;28;20512;-79
2023/04/03 03:32:12;;;;;;;0.47;0.45;;;;;;;;;;5024148;28;20481;-79
2023/04/03 03:34:38;;;;;;;0.20;0.20;;;;;;;;;;5019366;28;20150;-76
2023/04/03 03:37:07;;;;;;;0.20;0.20;;;;;;;;;;5020694;28;20053;-81
2023/04/03 03:39:33;;;;;;;0.20;0.20;;;;;;;;;;5016508;28;20030;-82
2023/04/03 03:41:59;;;;;;;0.75;0.28;;;;;;;;;;5023217;28;20052;-81
2023/04/03 03:44:25;;;;;;;0.20;0.20;;;;;;;;;;5030389;28;20616;-81
2023/04/03 03:46:51;;;;;;;0.30;0.30;;;;;;;;;;5013614;28;20037;-81
2023/04/03 03:49:17;;;;;;;0.13;0.13;;;;;;;;;;5015921;28;20528;-80
2023/04/03 03:51:46;;;;;;;1.17;0.30;;;;;;;;;;5021170;28;20030;-80
2023/04/03 03:54:13;;;;;;;0.60;0.30;;;;;;;;;;5026665;28;20029;-81
2023/04/03 03:56:39;;;;;;;0.40;0.40;;;;;;;;;;5029193;28;20216;-80
2023/04/03 03:59:05;;;;;;;0.25;0.25;;;;;;;;;;5019050;28;20114;-81
2023/04/03 04:01:31;;;;;;;0.93;0.40;;;;;;;;;;5026638;28;20076;-80
2023/04/03 04:03:57;;;;;;;0.15;0.15;;;;;;;;;;5021073;28;20033;-79
2023/04/03 04:06:23;;;;;;;0.30;0.30;;;;;;;;;;5007608;28;20040;-80
2023/04/03 04:08:49;;;;;;;1.00;0.20;;;;;;;;;;5016680;28;20563;-81
2023/04/03 04:11:15;;;;;;;0.20;0.20;;;;;;;;;;5017635;28;20048;-81
2023/04/03 04:13:41;;;;;;;0.47;0.30;;;;;;;;;;5018369;28;20033;-82
2023/04/03 04:16:08;;;;;;;0.20;0.20;;;;;;;;;;5015910;28;20041;-82
2023/04/03 04:18:34;;;;;;;1.85;0.60;;;;;;;;;;5016954;28;20044;-82
2023/04/03 04:21:00;;;;;;;0.50;0.35;;;;;;;;;;5016456;28;20026;-81
2023/04/03 04:23:26;;;;;;;1.73;0.70;;;;;;;;;;5017442;28;20494;-82
2023/04/03 04:25:52;;;;;;;0.32;0.32;;;;;;;;;;5016120;28;20026;-83
2023/04/03 04:28:18;;;;;;;0.17;0.17;;;;;;;;;;5016440;28;20488;-82
2023/04/03 04:30:45;;;;;;;0.20;0.20;;;;;;;;;;5016811;28;20034;-82
2023/04/03 04:33:11;;;;;;;1.75;0.50;;;;;;;;;;5016250;28;20049;-82
2023/04/03 04:35:37;;;;;;;0.57;0.05;;;;;;;;;;5017125;28;20124;-82
2023/04/03 04:38:03;;;;;;;0.95;0.40;;;;;;;;;;5017377;28;20018;-81
2023/04/03 04:40:29;;;;;;;1.65;0.30;;;;;;;;;;5017699;28;20052;-81
2023/04/03 04:42:55;;;;;;;0.20;0.15;;;;;;;;;;5017759;28;20050;-81
2023/04/03 04:45:21;;;;;;;1.00;0.28;;;;;;;;;;5016063;28;20610;-80
2023/04/03 04:47:47;;;;;;;0.20;0.20;;;;;;;;;;5014432;28;20846;-81
2023/04/03 04:50:13;;;;;;;0.68;0.47;;;;;;;;;;5016254;28;20499;-81
2023/04/03 04:52:39;;;;;;;0.30;0.30;;;;;;;;;;5015353;28;20108;-86
2023/04/03 04:55:05;;;;;;;2.28;0.40;;;;;;;;;;5023033;28;20032;-75
2023/04/03 04:57:31;;;;;;;0.17;0.17;;;;;;;;;;5025892;28;20116;-78
2023/04/03 04:59:57;;;;;;;0.22;0.20;;;;;;;;;;5020784;28;20096;-78
2023/04/03 05:02:23;;;;;;;1.48;0.68;;;;;;;;;;5024979;28;20120;-79
2023/04/03 05:04:51;;;;;;;3.10;0.30;;;;;;;;;;5027825;28;20535;-79
2023/04/03 05:07:17;;;;;;;8.20;0.52;;;;;;;;;;5028776;28;20499;-79
2023/04/03 05:09:43;;;;;;;0.73;0.30;;;;;;;;;;5024845;28;20037;-78
2023/04/03 05:12:09;;;;;;;0.30;0.30;;;;;;;;;;5021333;28;20053;-79
2023/04/03 05:14:35;;;;;;;0.20;0.20;;;;;;;;;;5020157;28;20111;-82
2023/04/03 05:17:01;;;;;;;0.50;0.50;;;;;;;;;;5023374;28;20047;-80
2023/04/03 05:19:27;;;;;;;1.58;0.70;;;;;;;;;;5021200;28;20026;-81
2023/04/03 05:21:53;;;;;;;0.30;0.30;;;;;;;;;;5024818;28;20029;-82
2023/04/03 05:24:19;;;;;;;0.73;0.50;;;;;;;;;;5021187;28;20092;-81
2023/04/03 05:26:45;;;;;;;0.73;0.50;;;;;;;;;;5012092;28;20030;-82
2023/04/03 05:29:11;;;;;;;0.30;0.30;;;;;;;;;;5015576;28;20136;-83
2023/04/03 05:31:37;;;;;;;2.20;0.95;;;;;;;;;;5023615;28;20029;-82
2023/04/03 05:34:03;;;;;;;1.00;0.63;;;;;;;;;;5021326;28;20504;-82
2023/04/03 05:36:29;;;;;;;0.43;0.40;;;;;;;;;;5022188;28;20025;-80
2023/04/03 05:38:56;;;;;;;0.65;0.57;;;;;;;;;;5014362;28;20091;-73
2023/04/03 05:41:22;;;;;;;0.65;0.40;;;;;;;;;;5023346;28;20053;-80
2023/04/03 05:43:48;;;;;;;0.88;0.88;;;;;;;;;;5021791;28;20032;-79
2023/04/03 05:46:16;;;;;;;0.57;0.57;;;;;;;;;;5021807;28;20026;-83
2023/04/03 05:48:42;;;;;;;0.30;0.30;;;;;;;;;;5022423;28;20087;-84
2023/04/03 05:51:13;;;;;;;0.30;0.30;;;;;;;;;;5018887;28;20032;-86
2023/04/03 05:53:39;;;;;;;;;;;;;;;;;;5025208;28;20078;-86
2023/04/03 05:56:05;;;;;;;0.85;0.35;;;;;;;;;;5027207;28;20352;-88
2023/04/03 05:58:31;;;;;;;1.10;0.70;;;;;;;;;;5014471;28;20420;-80
2023/04/03 06:00:57;;;;;;;0.40;0.30;;;;;;;;;;5027094;28;20025;-77
2023/04/03 06:03:23;;;;;;;0.57;0.50;;;;;;;;;;5023884;28;20025;-78
2023/04/03 06:05:49;;;;;;;0.30;0.30;;;;;;;;;;5028247;28;20436;-77
2023/04/03 06:08:15;;;;;;;0.57;0.28;;;;;;;;;;5024643;28;20029;-78
2023/04/03 06:10:41;;;;;;;0.60;0.25;;;;;;;;;;5028630;28;20029;-73
2023/04/03 06:13:07;;;;;;;0.25;0.20;;;;;;;;;;5024653;28;20483;-73
2023/04/03 06:15:33;;;;;;;1.08;0.40;;;;;;;;;;5029069;28;20021;-72
2023/04/03 06:17:59;;;;;;;0.20;0.20;;;;;;;;;;5027117;28;20041;-71
2023/04/03 06:20:26;;;;;;;0.17;0.17;;;;;;;;;;5026542;28;20108;-73
2023/04/03 06:22:51;;;;;;;2.67;0.30;;;;;;;;;;5028265;28;20026;-73
2023/04/03 06:25:18;;;;;;;1.30;0.45;;;;;;;;;;5025688;28;20026;-72
2023/04/03 06:27:45;;;;;;;0.55;0.45;;;;;;;;;;5026091;28;20029;-73
2023/04/03 06:30:11;;;;;;;0.40;0.30;;;;;;;;;;5023995;28;20476;-73
2023/04/03 06:32:37;;;;;;;2.97;0.52;;;;;;;;;;5023695;28;21284;-72
2023/04/03 06:35:07;;;;;;;0.57;0.30;;;;;;;;;;5026206;28;20498;-72
2023/04/03 06:37:35;;;;;;;0.85;0.70;;;;;;;;;;5025542;28;20115;-73
2023/04/03 06:40:10;;;;;;;0.20;0.20;;;;;;;;;;5030202;28;20017;-72
2023/04/03 06:42:36;;;;;;;0.47;0.40;;;;;;;;;;5029860;28;20048;-71
2023/04/03 06:45:02;;;;;;;0.30;0.30;;;;;;;;;;5030381;28;20029;-71
2023/04/03 06:47:28;;;;;;;0.40;0.40;;;;;;;;;;5030385;28;20021;-71
2023/04/03 06:49:54;;;;;;;1.80;0.88;;;;;;;;;;5030102;28;20029;-72
2023/04/03 06:52:20;;;;;;;1.92;0.32;;;;;;;;;;5012141;28;20591;-72
2023/04/03 06:54:47;;;;;;;0.28;0.28;;;;;;;;;;5030039;28;20396;-71
2023/04/03 06:57:13;;;;;;;4.45;0.38;;;;;;;;;;5029872;28;20039;-72
2023/04/03 06:59:40;;;;;;;0.70;0.40;;;;;;;;;;5030055;28;20108;-72
2023/04/03 07:02:06;;;;;;;0.15;0.15;;;;;;;;;;5022404;28;20076;-72
2023/04/03 07:04:32;;;;;;;0.60;0.60;;;;;;;;;;5010271;28;20077;-72
2023/04/03 07:06:58;;;;;;;1.88;0.57;;;;;;;;;;5008675;28;20712;-73
2023/04/03 07:09:24;;;;;;;0.45;0.38;;;;;;;;;;5010118;28;20516;-72
2023/04/03 07:11:50;;;;;;;1.70;0.50;;;;;;;;;;5010034;28;20473;-71
2023/04/03 07:14:16;;;;;;;0.52;0.40;;;;;;;;;;5012053;28;20034;-72
2023/04/03 07:16:42;;;;;;;0.35;0.30;;;;;;;;;;5029807;28;20026;-73
2023/04/03 07:19:08;;;;;;;0.13;0.10;;;;;;;;;;5029704;28;20025;-72
2023/04/03 07:21:34;;;;;;;0.82;0.50;;;;;;;;;;5029715;28;20564;-71
2023/04/03 07:24:00;;;;;;;1.35;0.40;;;;;;;;;;5029488;28;20018;-72
2023/04/03 07:26:26;;;;;;;2.13;0.30;;;;;;;;;;5017516;28;20523;-71
2023/04/03 07:28:52;;;;;;;0.32;0.20;;;;;;;;;;5009809;28;20022;-72
2023/04/03 07:31:19;;;;;;;0.22;0.20;;;;;;;;;;5009405;28;20076;-72
2023/04/03 07:33:45;;;;;;;0.35;0.30;;;;;;;;;;5009917;28;20421;-71
2023/04/03 07:36:14;;;;;;;1.30;0.68;;;;;;;;;;5009564;28;20452;-71
2023/04/03 07:38:40;;;;;;;1.10;0.50;;;;;;;;;;5009318;28;20479;-72
2023/04/03 07:41:06;;;;;;;0.70;0.32;;;;;;;;;;5009245;28;20026;-72
2023/04/03 07:43:34;;;;;;;4.15;0.77;;;;;;;;;;5009500;28;20381;-72
2023/04/03 07:46:00;;;;;;;0.30;0.22;;;;;;;;;;5009538;28;20033;-72
2023/04/03 07:48:26;;;;;;;0.30;0.30;;;;;;;;;;5009442;28;20026;-72
2023/04/03 07:50:52;;;;;;;0.32;0.25;;;;;;;;;;5009344;28;20117;-72
2023/04/03 07:53:18;;;;;;;0.80;0.55;;;;;;;;;;5008933;28;20061;-72
2023/04/03 07:55:48;;;;;;;0.20;0.20;;;;;;;;;;5019871;28;20104;-72
2023/04/03 07:58:18;;;;;;;0.30;0.25;;;;;;;;;;5011934;28;20183;-72
2023/04/03 08:00:44;;;;;;;0.90;0.65;;;;;;;;;;5009756;28;20030;-72
2023/04/03 08:03:11;;;;;;;0.38;0.38;;;;;;;;;;5025717;28;20060;-72
2023/04/03 08:05:38;;;;;;;0.32;0.32;;;;;;;;;;5028617;28;20040;-72
2023/04/03 08:08:04;;;;;;;1.02;0.43;;;;;;;;;;5028817;28;20021;-72
2023/04/03 08:10:31;;;;;;;0.22;0.22;;;;;;;;;;5028706;28;20030;-72
2023/04/03 08:12:56;;;;;;;1.98;0.40;;;;;;;;;;5028503;28;20235;-72
2023/04/03 08:15:23;;;;;;;0.28;0.22;;;;;;;;;;5028909;28;20021;-73
2023/04/03 08:17:49;;;;;;;2.33;0.63;;;;;;;;;;5028543;28;20026;-71
2023/04/03 08:20:15;;;;;;;1.08;0.30;;;;;;;;;;5029223;28;20111;-72
2023/04/03 08:22:41;;;;;;;2.80;0.77;;;;;;;;;;5011096;28;20028;-72
2023/04/03 08:25:07;;;;;;;3.17;0.60;;;;;;;;;;5028098;28;20465;-72
2023/04/03 08:27:33;;;;;;;0.30;0.30;;;;;;;;;;5008627;28;20421;-71
2023/04/03 08:29:59;;;;;;;0.25;0.25;;;;;;;;;;5008937;28;20022;-72
2023/04/03 08:32:25;;;;;;;3.30;0.40;;;;;;;;;;5008654;28;20036;-72
2023/04/03 08:34:51;;;;;;;0.10;0.10;;;;;;;;;;5008860;28;20044;-72
2023/04/03 08:37:18;;;;;;;0.63;0.20;;;;;;;;;;5008156;28;20128;-71
2023/04/03 08:39:44;;;;;;;0.50;0.50;;;;;;;;;;5008755;28;20025;-72
2023/04/03 08:42:29;;;;;;;0.38;0.35;;;;;;;;;;5008044;28;20515;-72
2023/04/03 08:45:00;;;;;;;0.17;0.15;;;;;;;;;;5008176;28;20104;-72
2023/04/03 08:47:26;;;;;;;0.52;0.40;;;;;;;;;;5008297;28;20075;-72
2023/04/03 08:49:59;;;;;;;0.28;0.28;;;;;;;;;;5008173;28;20030;-72
2023/04/03 08:52:46;;;;;;;0.75;0.20;;;;;;;;;;5008480;28;20029;-72
2023/04/03 08:55:15;;;;;;;1.00;0.30;;;;;;;;;;4997955;28;20091;-72
2023/04/03 08:57:42;;;;;;;0.70;0.70;;;;;;;;;;5015742;28;20080;-72
2023/04/03 09:00:14;;;;;;;2.42;0.60;;;;;;;;;;5008250;28;20097;-72
2023/04/03 09:02:42;;;;;;;0.98;0.85;;;;;;;;;;5020816;28;20104;-72
2023/04/03 09:05:13;;;;;;;0.55;0.30;;;;;;;;;;5027949;28;20606;-72
2023/04/03 09:07:42;;;;;;;0.50;0.30;;;;;;;;;;5027686;28;20025;-72
2023/04/03 09:10:10;;;;;;;1.73;0.30;;;;;;;;;;5028335;28;20036;-72
2023/04/03 09:12:45;;;;;;;0.75;0.40;;;;;;;;;;5027402;28;20544;-71
2023/04/03 09:15:25;;;;;;;0.43;0.15;;;;;;;;;;5028023;28;20021;-72
2023/04/03 09:18:00;;;;;;;0.30;0.30;;;;;;;;;;5027453;28;20550;-72
2023/04/03 09:20:45;;;;;;;0.40;0.25;;;;;;;;;;5027723;28;20112;-72
2023/04/03 09:23:20;;;;;;;0.52;0.38;;;;;;;;;;5027511;28;20052;-72
2023/04/03 09:25:46;;;;;;;0.52;0.30;;;;;;;;;;5021069;28;20020;-72
2023/04/03 09:28:12;;;;;;;1.23;0.38;;;;;;;;;;5007987;28;20044;-72
2023/04/03 09:30:38;;;;;;;0.22;0.22;;;;;;;;;;5006837;28;20105;-72
2023/04/03 09:33:05;;;;;;;0.20;0.20;;;;;;;;;;5007936;28;20033;-72
2023/04/03 09:35:41;;;;;;;1.00;0.50;;;;;;;;;;5007704;28;20034;-72
2023/04/03 09:38:10;;;;;;;0.65;0.20;;;;;;;;;;5007774;28;20060;-72
2023/04/03 09:40:38;;;;;;;1.02;1.00;;;;;;;;;;5007414;28;20057;-73
2023/04/03 09:43:16;;;;;;;0.35;0.15;;;;;;;;;;5007800;28;20041;-72
2023/04/03 09:45:42;;;;;;;0.28;0.28;;;;;;;;;;5007871;28;20058;-73
2023/04/03 09:48:15;;;;;;;0.43;0.38;;;;;;;;;;4989764;28;20384;-73
2023/04/03 09:50:51;;;;;;;0.65;0.63;;;;;;;;;;5007479;28;20481;-71
2023/04/03 09:53:43;;;;;;;0.40;0.22;;;;;;;;;;5007196;28;20071;-72
2023/04/03 09:56:22;;;;;;;0.30;0.30;;;;;;;;;;5017467;28;20507;-71
2023/04/03 09:58:53;;;;;;;0.20;0.20;;;;;;;;;;5007828;28;20029;-72
2023/04/03 10:01:28;;;;;;;0.30;0.30;;;;;;;;;;5008615;28;20420;-72
2023/04/03 10:04:08;;;;;;;0.43;0.38;;;;;;;;;;5027143;28;20034;-72
2023/04/03 10:06:35;;;;;;;0.95;0.20;;;;;;;;;;5026703;28;20460;-71
2023/04/03 10:09:04;;;;;;;0.75;0.60;;;;;;;;;;5027247;28;20029;-72
2023/04/03 10:11:31;;;;;;;0.75;0.32;;;;;;;;;;5027065;28;20033;-72
2023/04/03 10:14:02;;;;;;;0.20;0.20;;;;;;;;;;5026934;28;20025;-72
2023/04/03 10:16:41;;;;;;;0.28;0.28;;;;;;;;;;5026880;28;20033;-72
2023/04/03 10:19:07;;;;;;;0.63;0.35;;;;;;;;;;5027156;28;20108;-72
2023/04/03 10:21:42;;;;;;;0.20;0.10;;;;;;;;;;5026748;28;20109;-72
2023/04/03 10:24:08;;;;;;;0.30;0.20;;;;;;;;;;5026952;28;20032;-72
2023/04/03 10:26:43;;;;;;;0.40;0.20;;;;;;;;;;5013730;28;20034;-72
2023/04/03 10:29:22;;;;;;;0.35;0.30;;;;;;;;;;5007369;28;20163;-72
2023/04/03 10:32:07;;;;;;;0.30;0.30;;;;;;;;;;5007512;28;20052;-72
2023/04/03 10:34:39;;;;;;;2.08;0.43;;;;;;;;;;5006906;28;20200;-72
2023/04/03 10:37:04;;;;;;;;;;;;;;;;;;5007525;28;20137;-72
2023/04/03 10:39:51;;;;;;;0.30;0.30;;;;;;;;;;5007253;28;20399;-72
2023/04/03 10:42:29;;;;;;;0.40;0.35;;;;;;;;;;5009277;28;20070;-71
2023/04/03 10:45:04;;;;;;;0.28;0.28;;;;;;;;;;5010458;28;20075;-72
2023/04/03 10:47:49;;;;;;;0.20;0.20;;;;;;;;;;5010539;28;20029;-72
2023/04/03 10:50:34;;;;;;;0.20;0.20;;;;;;;;;;5010539;28;20540;-72
2023/04/03 10:53:04;;;;;;;0.75;0.50;;;;;;;;;;5010668;28;20022;-72
2023/04/03 10:55:49;;;;;;;0.25;0.25;;;;;;;;;;5019363;28;20469;-72
2023/04/03 10:58:20;;;;;;;0.55;0.20;;;;;;;;;;5026224;28;20045;-72
2023/04/03 11:00:46;;;;;;;;;;;;;;;;;;5011182;28;20053;-72
2023/04/03 11:03:17;;;;;;;0.20;0.20;;;;;;;;;;5027321;28;19931;-72
2023/04/03 11:05:49;;;;;;;0.20;0.20;;;;;;;;;;5030339;28;20476;-72
2023/04/03 11:08:29;;;;;;;0.32;0.32;;;;;;;;;;5010941;28;20033;-72
2023/04/03 11:10:58;;;;;;;0.60;0.55;;;;;;;;;;5010024;28;20107;-71
2023/04/03 11:13:32;;;;;;;0.22;0.20;;;;;;;;;;5010126;28;20029;-72
2023/04/03 11:15:58;;;;;;;0.22;0.20;;;;;;;;;;5010124;28;20026;-72
2023/04/03 11:18:47;;;;;;;0.10;0.10;;;;;;;;;;5010031;28;20083;-72
2023/04/03 11:21:18;;;;;;;0.20;0.20;;;;;;;;;;4996984;28;20099;-72
2023/04/03 11:23:46;;;;;;;0.20;0.20;;;;;;;;;;5010332;28;20034;-72
2023/04/03 11:26:14;;;;;;;0.08;0.08;;;;;;;;;;5020072;28;20512;-72
2023/04/03 11:28:41;;;;;;;0.20;0.20;;;;;;;;;;5029625;28;20037;-71
2023/04/03 11:31:16;;;;;;;0.77;0.43;;;;;;;;;;5029652;28;20112;-72
2023/04/03 11:33:46;;;;;;;0.20;0.20;;;;;;;;;;5029590;28;20026;-72
2023/04/03 11:36:25;;;;;;;0.20;0.20;;;;;;;;;;5029361;28;20030;-72
2023/04/03 11:38:53;;;;;;;1.17;0.20;;;;;;;;;;5029480;28;20026;-73
2023/04/03 11:41:25;;;;;;;0.30;0.20;;;;;;;;;;5028966;28;20061;-73
2023/04/03 11:43:58;;;;;;;1.20;0.17;;;;;;;;;;5029446;28;20035;-74
2023/04/03 11:46:44;;;;;;;0.43;0.28;;;;;;;;;;5029382;28;20052;-73
2023/04/03 11:49:33;;;;;;;0.63;0.40;;;;;;;;;;5029515;28;20029;-73
2023/04/03 11:51:59;;;;;;;0.30;0.30;;;;;;;;;;5028992;28;20026;-73
2023/04/03 11:54:45;;;;;;;0.30;0.30;;;;;;;;;;5028293;28;20040;-74
2023/04/03 11:57:43;;;;;;;0.85;0.65;;;;;;;;;;5009467;28;20034;-73
2023/04/03 12:00:28;;;;;;;0.30;0.30;;;;;;;;;;5009591;28;20025;-73
2023/04/03 12:02:54;;;;;;;0.22;0.22;;;;;;;;;;5023451;28;20032;-74
2023/04/03 12:05:28;;;;;;;0.40;0.35;;;;;;;;;;5028753;28;20021;-73
2023/04/03 12:08:12;;;;;;;1.95;0.65;;;;;;;;;;5029044;28;20445;-73
2023/04/03 12:10:39;;;;;;;0.22;0.20;;;;;;;;;;5028583;28;20037;-73
2023/04/03 12:13:13;;;;;;;0.10;0.10;;;;;;;;;;5028849;28;20021;-74
2023/04/03 12:15:39;;;;;;;0.63;0.25;;;;;;;;;;5028785;28;20034;-74
2023/04/03 12:18:24;;;;;;;1.15;0.32;;;;;;;;;;5028969;28;20028;-73
2023/04/03 12:20:57;;;;;;;4.55;0.43;;;;;;;;;;5028802;28;20029;-73
2023/04/03 12:23:23;;;;;;;0.43;0.35;;;;;;;;;;5028647;28;20030;-73
2023/04/03 12:25:51;;;;;;;0.10;0.10;;;;;;;;;;5021766;28;20420;-74
2023/04/03 12:28:17;;;;;;;0.28;0.28;;;;;;;;;;5008548;28;20156;-73
2023/04/03 12:30:43;;;;;;;0.30;0.30;;;;;;;;;;5008657;28;20026;-73
2023/04/03 12:33:21;;;;;;;0.30;0.22;;;;;;;;;;5008918;28;20087;-73
2023/04/03 12:36:03;;;;;;;2.65;0.93;;;;;;;;;;5008730;28;20025;-74
2023/04/03 12:38:48;;;;;;;0.10;0.10;;;;;;;;;;5008517;28;20449;-73
2023/04/03 12:41:27;;;;;;;0.30;0.30;;;;;;;;;;5008160;28;20022;-73
2023/04/03 12:43:56;;;;;;;0.52;0.20;;;;;;;;;;5008576;28;20025;-74
2023/04/03 12:46:23;;;;;;;0.30;0.30;;;;;;;;;;5008400;28;20032;-73
2023/04/03 12:48:51;;;;;;;0.22;0.22;;;;;;;;;;5008599;28;20026;-73
2023/04/03 12:51:19;;;;;;;0.20;0.20;;;;;;;;;;5008225;28;20432;-73
2023/04/03 12:53:46;;;;;;;0.40;0.40;;;;;;;;;;5008241;28;20535;-74
2023/04/03 12:56:29;;;;;;;0.65;0.32;;;;;;;;;;5022973;28;20380;-73
2023/04/03 12:58:58;;;;;;;0.40;0.40;;;;;;;;;;5008161;28;20037;-73
2023/04/03 13:01:25;;;;;;;2.25;0.28;;;;;;;;;;5010243;28;20037;-73
2023/04/03 13:03:53;;;;;;;0.17;0.17;;;;;;;;;;5027920;28;20385;-73
2023/04/03 13:06:22;;;;;;;0.10;0.10;;;;;;;;;;5027582;28;20120;-74
2023/04/03 13:09:06;;;;;;;0.10;0.10;;;;;;;;;;5027957;28;20017;-72
2023/04/03 13:11:36;;;;;;;0.20;0.20;;;;;;;;;;5027583;28;20116;-73
2023/04/03 13:14:05;;;;;;;0.13;0.13;;;;;;;;;;5027754;28;20393;-72
2023/04/03 13:16:31;;;;;;;0.30;0.30;;;;;;;;;;5027484;28;20029;-73
2023/04/03 13:18:58;;;;;;;0.28;0.28;;;;;;;;;;5027314;28;20025;-73
2023/04/03 13:21:28;;;;;;;0.22;0.22;;;;;;;;;;5027673;28;20029;-73
2023/04/03 13:23:56;;;;;;;0.25;0.25;;;;;;;;;;5027390;28;20035;-72
2023/04/03 13:26:23;;;;;;;4.00;0.50;;;;;;;;;;5016022;28;20094;-73
2023/04/03 13:28:50;;;;;;;0.52;0.20;;;;;;;;;;5007866;28;20072;-73
2023/04/03 13:31:42;;;;;;;0.30;0.30;;;;;;;;;;5007761;28;20391;-73
2023/04/03 13:34:13;;;;;;;0.32;0.32;;;;;;;;;;5003474;28;20042;-73
2023/04/03 13:36:39;;;;;;;0.50;0.50;;;;;;;;;;5019290;28;20475;-74
2023/04/03 13:39:22;;;;;;;0.13;0.10;;;;;;;;;;5027363;28;20029;-72
2023/04/03 13:41:49;;;;;;;0.50;0.30;;;;;;;;;;5027391;28;20167;-73
2023/04/03 13:44:36;;;;;;;0.35;0.35;;;;;;;;;;5027168;28;20033;-73
2023/04/03 13:47:11;;;;;;;0.75;0.30;;;;;;;;;;5026884;28;20042;-73
2023/04/03 13:49:39;;;;;;;0.55;0.35;;;;;;;;;;5026889;28;20033;-72
2023/04/03 13:52:23;;;;;;;0.10;0.10;;;;;;;;;;5027329;28;20035;-74
2023/04/03 13:54:53;;;;;;;0.10;0.10;;;;;;;;;;5027114;28;20484;-73
2023/04/03 13:57:19;;;;;;;0.20;0.20;;;;;;;;;;5017908;28;20037;-74
2023/04/03 13:59:45;;;;;;;0.22;0.20;;;;;;;;;;5007410;28;20034;-73
2023/04/03 14:02:18;;;;;;;0.20;0.20;;;;;;;;;;5016069;28;20152;-73
2023/04/03 14:04:44;;;;;;;0.47;0.20;;;;;;;;;;5027067;28;20026;-74
2023/04/03 14:07:10;;;;;;;0.20;0.20;;;;;;;;;;5027187;28;20087;-73
2023/04/03 14:09:37;;;;;;;0.20;0.20;;;;;;;;;;5026555;28;20040;-73
2023/04/03 14:12:06;;;;;;;0.25;0.20;;;;;;;;;;5027256;28;20108;-73
2023/04/03 14:14:34;;;;;;;0.15;0.15;;;;;;;;;;5026934;28;20037;-74
2023/04/03 14:17:02;;;;;;;0.57;0.40;;;;;;;;;;5029254;28;20112;-73
2023/04/03 14:19:30;;;;;;;0.55;0.38;;;;;;;;;;5030886;28;20060;-73
2023/04/03 14:21:56;;;;;;;0.25;0.10;;;;;;;;;;5030857;28;20033;-73
2023/04/03 14:24:23;;;;;;;0.15;0.15;;;;;;;;;;5030714;28;20034;-73
2023/04/03 14:26:51;;;;;;;0.32;0.17;;;;;;;;;;5015966;28;20030;-73
2023/04/03 14:29:17;;;;;;;0.38;0.30;;;;;;;;;;5010964;28;20025;-73
2023/04/03 14:31:45;;;;;;;0.20;0.20;;;;;;;;;;5011031;28;20037;-73
2023/04/03 14:34:12;;;;;;;0.22;0.22;;;;;;;;;;5011014;28;20072;-73
2023/04/03 14:36:38;;;;;;;0.10;0.10;;;;;;;;;;5010431;28;20030;-73
2023/04/03 14:39:05;;;;;;;1.58;0.30;;;;;;;;;;5010802;28;20021;-73
2023/04/03 14:41:31;;;;;;;0.73;0.30;;;;;;;;;;5010522;28;20042;-73
2023/04/03 14:43:57;;;;;;;0.20;0.15;;;;;;;;;;5010557;28;20030;-72
2023/04/03 14:46:27;;;;;;;0.10;0.10;;;;;;;;;;5010681;28;20489;-73
2023/04/03 14:48:53;;;;;;;0.10;0.10;;;;;;;;;;5010715;28;20311;-73
2023/04/03 14:51:19;;;;;;;0.20;0.20;;;;;;;;;;5010504;28;20507;-74
2023/04/03 14:53:45;;;;;;;0.30;0.20;;;;;;;;;;5010705;28;20030;-73